Monday, October 16, 2017, 8:24 PM EDT
Back to Local

KMMK, Meriden Markham Municipal Airport

Location: Meriden, CT, United States Lat: 41.517
Local Time: 8:24 PM EDT ( 0:24 GMT) Lon: -72.833
Time Zone: US/Eastern Elev: 101 ft

Show me the last for .
Show Decoded

2017-10-16 19:53 METAR KMMK 162353Z AUTO 31005KT 10SM CLR 08/03 A3012 RMK AO2 SLP199 T00830028
                 10122 20083 51028 =
2017-10-16 18:53 METAR KMMK 162253Z AUTO 33007KT 10SM CLR 10/03 A3009 RMK AO2 SLP190 T01000028 =
2017-10-16 17:53 METAR KMMK 162153Z AUTO 32008KT 10SM CLR 11/03 A3007 RMK AO2 SLP183 T01060033 =
2017-10-16 16:53 METAR KMMK 162053Z AUTO 32011G20KT 10SM CLR 11/03 A3004 RMK AO2 SLP171 T01110033
                 52013 =
2017-10-16 15:53 METAR KMMK 161953Z AUTO 32012KT 10SM CLR 12/04 A3003 RMK AO2 SLP167 T01170039 =
2017-10-16 14:53 METAR KMMK 161853Z AUTO 32009KT 10SM SCT034 12/04 A3001 RMK AO2 SLP162 T01170039
                 =
2017-10-16 13:53 METAR KMMK 161753Z AUTO 31011KT 10SM FEW031 12/04 A3000 RMK AO2 SLP158 T01170044
                 10139 20111 50006 =
2017-10-16 12:53 METAR KMMK 161653Z AUTO 32011KT 10SM CLR 11/04 A3000 RMK AO2 SLP159 T01110039 $
                 =
2017-10-16 11:53 METAR KMMK 161553Z AUTO 33013G20KT 10SM CLR 12/04 A3000 RMK AO2 SLP158 T01220039
                 $ =
2017-10-16 10:53 METAR KMMK 161453Z AUTO 34013G21KT 10SM CLR 12/04 A2998 RMK AO2 SLP152 T01170044
                 53019 $ =
2017-10-16 09:53 METAR KMMK 161353Z AUTO 34008G16KT 10SM CLR 12/06 A2997 RMK AO2 SLP146 T01220056
                 $ =
2017-10-16 08:53 METAR KMMK 161253Z AUTO 35012G20KT 10SM CLR 13/06 A2994 RMK AO2 SLP137 T01280061
                 $ =
2017-10-16 07:53 METAR KMMK 161153Z AUTO 34011G14KT 10SM SCT039 14/07 A2992 RMK AO2 SLP131 60001
                 70002 T01390072 10194 20139 53035 $ =
2017-10-16 06:53 METAR KMMK 161053Z AUTO 33008G16KT 10SM CLR 14/09 A2987 RMK AO2 SLP113 T01440089
                 $ =
2017-10-16 05:53 METAR KMMK 160953Z AUTO 34009KT 10SM BKN120 16/11 A2984 RMK AO2 RAB0858E18
                 SLP103 P0000 T01560111 $ =
2017-10-16 04:53 METAR KMMK 160853Z AUTO 33006KT 10SM BKN080 OVC100 17/13 A2982 RMK AO2 RAB07E36
                 SLP097 P0000 60001 T01670133 53013 $ =
2017-10-16 03:53 METAR KMMK 160753Z AUTO 31006KT 10SM OVC070 17/14 A2981 RMK AO2 RAE0659B31E42
                 SLP091 P0000 T01720139 $ =
2017-10-16 03:13 METAR KMMK 160713Z AUTO 31008KT 10SM FEW021 BKN050 OVC075 18/14 A2979 RMK AO2
                 RAE0659 P0000 T01780144 $ =
2017-10-16 02:53 METAR KMMK 160653Z AUTO 32009KT 10SM -RA BKN020 BKN025 OVC029 19/17 A2979 RMK
                 AO2 RAE16B33 SLP086 P0001 T01890167 $ =
2017-10-16 01:53 METAR KMMK 160553Z AUTO 23005KT 10SM -RA SCT015 BKN028 OVC065 19/18 A2978 RMK
                 AO2 RAB0456 SLP083 P0000 60000 T01940178 10211 20194 56003 $ =
2017-10-16 00:53 METAR KMMK 160453Z AUTO 21004KT 10SM OVC018 20/17 A2979 RMK AO2 SLP085 T02000172
                 402280167 $ =
2017-10-15 23:53 METAR KMMK 160353Z AUTO VRB06KT 10SM OVC021 21/17 A2978 RMK AO2 SLP082 T02060167
                 $ =
2017-10-15 22:53 METAR KMMK 160253Z AUTO VRB05KT 10SM OVC021 20/17 A2979 RMK AO2 SLP087 T02000167
                 57002 $ =
2017-10-15 21:53 METAR KMMK 160153Z AUTO 22009G16KT 10SM BKN022 21/16 A2979 RMK AO2 SLP088
                 T02060161 $ =
2017-10-15 20:53 METAR KMMK 160053Z AUTO 20009G17KT 10SM OVC021 21/16 A2979 RMK AO2 SLP087
                 T02060161 $ =

Support USWX by starting your Amazon purchase here.